Hauptseite
METAR-TAF:

METAR-TAF

Flughäfen :

Dansville Municipal Airport

Dansville, New York, Vereinigte Staaten

Breite: 42-34-10N, Länge: 077-42-52W, Höhe: 201 m

Beobachtung

Neuester Wetterbericht von vor 1 Stunde und 15 Minuten, um 01:54 UTC
Wind 9 kt aus Südost
Temperatur 22°C
Luftfeuchtigkeit 65%
Luftdruck 1018 hPa
Sichtweite: 16.1 km
Himmel klar

METAR: KDSV 250154Z AUTO 13009KT 10SM CLR 22/15 A3006 RMK AO2 SLP183 T02220150

Zeit: 23:09 (03:09 UTC)


TAF: fehlend

Wetterbeobachtungen und Prognosen von mehr als 4000 Flughäfen (METAR und TAF Bericht).

Die verfügbaren Stationen werden durch gelbe und rote Markierungen auf der Karte dargestellt.

Führen Sie die Maus auf sie, um den Namen der Station zu sehen.

Darauf klicken, um die Beobachtung von Wetterbeobachtungen und Prognosen zu sehen.

Um die Karte zu ändern : klicken Sie auf den grünen Tasten mit einem schwarzen Kreuz Zum Vergrößern, auf den grünen Button mit einem Gedankenstrich zu verkleinern, oder auf die grünen Pfeile für benachbarte Karten.


METAR-TAF: